createdAt,value
2023-02-14T00:01:46.889Z,77.66
2023-02-14T00:04:16.640Z,77.56
2023-02-14T00:06:44.893Z,77.39
2023-02-14T00:09:16.667Z,77.61
2023-02-14T00:11:45.585Z,77.67
2023-02-14T00:14:33.942Z,77.67
2023-02-14T00:17:02.258Z,77.67
2023-02-14T00:19:31.857Z,77.55
2023-02-14T00:22:00.138Z,77.69
2023-02-14T00:24:28.750Z,77.59
2023-02-14T00:26:57.204Z,77.71
2023-02-14T00:29:28.411Z,77.60
2023-02-14T00:31:57.481Z,77.61
2023-02-14T00:34:27.013Z,77.68
2023-02-14T00:36:55.656Z,77.66
2023-02-14T00:39:24.088Z,77.71
2023-02-14T00:41:52.431Z,77.62
2023-02-14T00:44:20.768Z,77.57
2023-02-14T00:46:49.069Z,77.53
2023-02-14T00:49:17.769Z,77.66
2023-02-14T00:51:46.112Z,77.72
2023-02-14T00:54:14.459Z,77.74
2023-02-14T00:56:42.910Z,77.63
2023-02-14T00:59:11.155Z,77.62
2023-02-14T01:01:40.283Z,77.57
2023-02-14T01:04:09.790Z,77.51
2023-02-14T01:06:38.180Z,77.48
2023-02-14T01:09:06.726Z,77.52
2023-02-14T01:11:35.262Z,77.57
2023-02-14T01:14:03.521Z,77.56
2023-02-14T01:16:32.003Z,77.60
2023-02-14T01:19:01.525Z,77.58
2023-02-14T01:21:32.613Z,77.58
2023-02-14T01:24:04.831Z,77.61
2023-02-14T01:26:34.575Z,77.63
2023-02-14T01:29:05.095Z,77.64
2023-02-14T01:31:35.196Z,77.69
2023-02-14T01:34:04.324Z,77.87
2023-02-14T01:36:38.048Z,77.74
2023-02-14T01:39:09.394Z,77.82
2023-02-14T01:41:39.132Z,77.81
2023-02-14T01:44:17.065Z,77.90
2023-02-14T01:46:46.553Z,78.00
2023-02-14T01:49:38.003Z,78.08
2023-02-14T01:52:11.313Z,78.06
2023-02-14T01:54:45.025Z,78.08
2023-02-14T01:57:17.319Z,78.17
2023-02-14T01:59:53.423Z,78.25
2023-02-14T02:02:24.125Z,78.29
2023-02-14T02:04:56.269Z,78.35
2023-02-14T02:07:27.322Z,78.29
2023-02-14T02:10:03.740Z,78.31
2023-02-14T02:12:35.814Z,78.29
2023-02-14T02:15:05.743Z,78.25
2023-02-14T02:18:06.944Z,78.24
2023-02-14T02:21:01.578Z,78.24
2023-02-14T02:23:42.326Z,78.26
2023-02-14T02:26:44.604Z,78.44
2023-02-14T02:29:41.171Z,78.46
2023-02-14T02:32:35.717Z,78.31
2023-02-14T02:35:21.268Z,78.34
2023-02-14T02:38:01.399Z,78.36
2023-02-14T02:40:29.545Z,78.38
2023-02-14T02:43:06.721Z,78.32
2023-02-14T02:46:01.043Z,78.39
2023-02-14T02:49:08.584Z,78.32
2023-02-14T02:52:07.326Z,78.51
2023-02-14T02:54:42.294Z,78.37
2023-02-14T02:57:20.055Z,78.40
2023-02-14T02:59:52.463Z,78.36
2023-02-14T03:02:54.772Z,78.38
2023-02-14T03:05:24.031Z,78.26
2023-02-14T03:07:52.436Z,78.31
2023-02-14T03:10:26.202Z,78.17
2023-02-14T03:13:16.161Z,78.33
2023-02-14T03:15:53.247Z,78.19
2023-02-14T03:19:18.389Z,78.28
2023-02-14T03:22:11.073Z,78.20
2023-02-14T03:24:56.371Z,78.24
2023-02-14T03:27:35.517Z,78.15
2023-02-14T03:30:35.317Z,78.16
2023-02-14T03:33:10.965Z,78.18
2023-02-14T03:36:05.517Z,78.13
2023-02-14T03:38:41.395Z,78.11
2023-02-14T03:41:14.660Z,78.15
2023-02-14T03:43:49.656Z,78.07
2023-02-14T03:46:26.100Z,77.95
2023-02-14T03:48:57.759Z,78.00
2023-02-14T03:51:28.476Z,77.97
2023-02-14T03:53:58.762Z,77.85
2023-02-14T03:56:36.604Z,77.89
2023-02-14T03:59:31.136Z,77.79
2023-02-14T04:02:08.366Z,77.72
2023-02-14T04:04:42.937Z,77.61
2023-02-14T04:07:24.892Z,77.66
2023-02-14T04:09:53.186Z,77.63
2023-02-14T04:12:32.264Z,77.65
2023-02-14T04:15:05.039Z,77.63
2023-02-14T04:17:51.902Z,77.69
2023-02-14T04:20:20.488Z,77.77
2023-02-14T04:22:49.471Z,77.64
2023-02-14T04:25:18.455Z,77.64
2023-02-14T04:27:47.031Z,77.60
2023-02-14T04:30:18.270Z,77.57
2023-02-14T04:32:47.011Z,77.55
2023-02-14T04:35:15.394Z,77.67
2023-02-14T04:37:43.609Z,77.76
2023-02-14T04:40:12.576Z,77.71
2023-02-14T04:42:40.784Z,77.58
2023-02-14T04:45:09.130Z,77.75
2023-02-14T04:47:37.466Z,77.68
2023-02-14T04:50:06.851Z,77.65
2023-02-14T04:52:35.174Z,77.68
2023-02-14T04:55:05.019Z,77.70
2023-02-14T04:57:33.332Z,77.74
2023-02-14T05:00:01.655Z,77.83
2023-02-14T05:02:30.682Z,77.72
2023-02-14T05:04:58.947Z,77.64
2023-02-14T05:07:28.009Z,77.72
2023-02-14T05:09:56.343Z,77.79
2023-02-14T05:12:24.603Z,77.77
2023-02-14T05:14:52.853Z,77.91
2023-02-14T05:17:21.155Z,77.87
2023-02-14T05:19:49.438Z,77.94
2023-02-14T05:22:18.596Z,77.99
2023-02-14T05:24:49.381Z,77.91
2023-02-14T05:27:17.675Z,77.98
2023-02-14T05:29:45.871Z,78.00
2023-02-14T05:32:14.181Z,78.00
2023-02-14T05:34:42.519Z,77.91
2023-02-14T05:37:10.684Z,77.98
2023-02-14T05:39:38.970Z,78.08
2023-02-14T05:42:07.235Z,78.11
2023-02-14T05:44:35.530Z,78.15
2023-02-14T05:47:04.081Z,78.03
2023-02-14T05:49:32.360Z,78.04
2023-02-14T05:52:00.605Z,78.13
2023-02-14T05:54:29.065Z,78.01
2023-02-14T05:56:57.378Z,78.15
2023-02-14T05:59:25.562Z,78.14
2023-02-14T06:01:53.874Z,77.96
2023-02-14T06:04:22.294Z,78.14
2023-02-14T06:06:50.511Z,77.95
2023-02-14T06:09:19.999Z,78.25
2023-02-14T06:11:48.353Z,78.24
2023-02-14T06:14:16.950Z,78.13
2023-02-14T06:16:45.617Z,78.22
2023-02-14T06:19:13.919Z,78.19
2023-02-14T06:21:42.236Z,78.15
2023-02-14T06:24:10.543Z,78.01
2023-02-14T06:26:38.802Z,77.90
2023-02-14T06:29:07.052Z,78.07
2023-02-14T06:31:35.627Z,78.28
2023-02-14T06:34:04.104Z,78.07
2023-02-14T06:36:32.289Z,78.13
2023-02-14T06:39:00.574Z,77.93
2023-02-14T06:41:28.806Z,78.13
2023-02-14T06:43:56.969Z,78.17
2023-02-14T06:46:25.276Z,78.22
2023-02-14T06:48:53.559Z,78.27
2023-02-14T06:51:23.945Z,78.17
2023-02-14T06:53:52.237Z,78.15
2023-02-14T06:56:20.490Z,78.19
2023-02-14T06:58:48.774Z,78.07
2023-02-14T07:01:17.168Z,78.29
2023-02-14T07:03:45.446Z,78.04
2023-02-14T07:06:13.799Z,78.39
2023-02-14T07:08:42.677Z,78.11
2023-02-14T07:11:10.922Z,78.18
2023-02-14T07:13:39.178Z,78.20
2023-02-14T07:16:07.463Z,78.06
2023-02-14T07:18:36.100Z,78.00
2023-02-14T07:21:04.494Z,78.02
2023-02-14T07:23:33.300Z,78.09
2023-02-14T07:26:01.669Z,78.54
2023-02-14T07:28:30.930Z,78.32
2023-02-14T07:31:01.709Z,78.47
2023-02-14T07:33:30.335Z,78.41
2023-02-14T07:35:58.499Z,78.64
2023-02-14T07:38:26.783Z,78.45
2023-02-14T07:40:55.136Z,78.62
2023-02-14T07:43:23.388Z,78.43
2023-02-14T07:45:51.720Z,78.50
2023-02-14T07:48:20.083Z,78.88
2023-02-14T07:50:49.184Z,78.73
2023-02-14T07:53:17.398Z,79.33
2023-02-14T07:55:50.553Z,79.33
2023-02-14T07:58:18.990Z,79.24
2023-02-14T08:00:47.263Z,79.17
2023-02-14T08:03:15.898Z,79.52
2023-02-14T08:05:44.573Z,79.37
2023-02-14T08:08:12.867Z,79.43
2023-02-14T08:10:41.086Z,79.75
2023-02-14T08:13:09.317Z,79.86
2023-02-14T08:15:56.560Z,80.22
2023-02-14T08:18:24.796Z,80.02
2023-02-14T08:20:53.360Z,80.05
2023-02-14T08:23:22.493Z,79.91
2023-02-14T08:25:53.310Z,79.91
2023-02-14T08:28:22.066Z,79.80
2023-02-14T08:30:51.258Z,79.41
2023-02-14T08:33:19.909Z,79.83
2023-02-14T08:35:51.480Z,79.80
2023-02-14T08:38:20.015Z,79.85
2023-02-14T08:40:48.329Z,79.83
2023-02-14T08:43:16.595Z,80.07
2023-02-14T08:45:44.881Z,80.64
2023-02-14T08:48:13.303Z,79.79
2023-02-14T08:50:41.672Z,80.31
2023-02-14T08:53:13.710Z,80.30
2023-02-14T08:55:42.463Z,80.23
2023-02-14T08:58:10.881Z,80.49
2023-02-14T09:00:39.445Z,80.21
2023-02-14T09:03:07.910Z,80.30
2023-02-14T09:05:40.451Z,80.06
2023-02-14T09:08:08.776Z,79.98
2023-02-14T09:10:37.035Z,79.93
2023-02-14T09:13:05.809Z,80.02
2023-02-14T09:15:34.250Z,79.73
2023-02-14T09:18:02.481Z,79.72
2023-02-14T09:20:31.266Z,79.32
2023-02-14T09:22:59.674Z,79.25
2023-02-14T09:25:27.950Z,79.38
2023-02-14T09:27:57.356Z,79.64
2023-02-14T09:30:26.422Z,79.18
2023-02-14T09:32:54.930Z,79.47
2023-02-14T09:35:23.308Z,79.01
2023-02-14T09:38:10.528Z,79.11
2023-02-14T09:40:39.110Z,78.91
2023-02-14T09:43:16.092Z,79.27
2023-02-14T09:45:55.311Z,78.83
2023-02-14T09:48:29.689Z,79.14
2023-02-14T09:51:20.515Z,79.26
2023-02-14T09:53:59.014Z,79.19
2023-02-14T09:56:52.225Z,79.24
2023-02-14T09:59:35.735Z,79.35
2023-02-14T10:02:31.410Z,79.15
2023-02-14T10:05:14.989Z,79.02
2023-02-14T10:08:20.024Z,78.68
2023-02-14T10:11:00.572Z,78.08
2023-02-14T10:13:31.787Z,78.24
2023-02-14T10:16:27.211Z,77.77
2023-02-14T10:19:04.500Z,77.38
2023-02-14T10:21:40.433Z,77.08
2023-02-14T10:24:19.388Z,77.32
2023-02-14T10:26:50.980Z,77.17
2023-02-14T10:29:21.091Z,76.77
2023-02-14T10:31:58.819Z,76.78
2023-02-14T10:34:37.201Z,76.58
2023-02-14T10:37:20.512Z,76.60
2023-02-14T10:39:56.021Z,76.71
2023-02-14T10:42:24.284Z,76.40
2023-02-14T10:45:04.075Z,76.24
2023-02-14T10:47:39.626Z,76.20
2023-02-14T10:50:21.538Z,76.45
2023-02-14T10:53:04.151Z,76.32
2023-02-14T10:56:04.700Z,76.15
2023-02-14T10:58:37.111Z,76.08
2023-02-14T11:01:14.857Z,75.85
2023-02-14T11:04:06.798Z,76.02
2023-02-14T11:06:35.175Z,75.98
2023-02-14T11:09:07.395Z,75.76
2023-02-14T11:11:43.765Z,75.53
2023-02-14T11:14:32.448Z,75.06
2023-02-14T11:17:23.187Z,75.34
2023-02-14T11:20:06.562Z,75.21
2023-02-14T11:22:35.685Z,75.23
2023-02-14T11:25:30.760Z,74.90
2023-02-14T11:28:03.193Z,74.95
2023-02-14T11:30:31.667Z,75.02
2023-02-14T11:33:01.146Z,74.73
2023-02-14T11:35:34.758Z,74.75
2023-02-14T11:38:19.105Z,74.80
2023-02-14T11:40:58.181Z,74.79
2023-02-14T11:43:31.337Z,74.48
2023-02-14T11:46:20.767Z,74.40
2023-02-14T11:48:56.655Z,74.35
2023-02-14T11:51:36.772Z,74.26
2023-02-14T11:54:06.903Z,74.33
2023-02-14T11:56:54.544Z,74.44
2023-02-14T11:59:35.332Z,74.08
2023-02-14T12:02:21.554Z,74.09
2023-02-14T12:04:55.261Z,74.01
2023-02-14T12:07:52.953Z,73.96
2023-02-14T12:10:26.039Z,73.81
2023-02-14T12:13:02.406Z,73.75
2023-02-14T12:15:56.380Z,73.49
2023-02-14T12:18:34.069Z,73.23
2023-02-14T12:21:28.530Z,72.93
2023-02-14T12:24:02.866Z,72.95
2023-02-14T12:26:36.569Z,73.29
2023-02-14T12:29:04.892Z,73.13
2023-02-14T12:31:33.656Z,73.12
2023-02-14T12:34:04.148Z,72.82
2023-02-14T12:37:02.407Z,73.01
2023-02-14T12:40:10.142Z,72.95
2023-02-14T12:43:03.289Z,73.09
2023-02-14T12:45:38.162Z,73.46
2023-02-14T12:48:25.053Z,73.31
2023-02-14T12:51:35.108Z,73.81
2023-02-14T12:54:35.380Z,73.97
2023-02-14T12:57:33.666Z,73.82
2023-02-14T13:00:15.229Z,73.83
2023-02-14T13:03:01.835Z,74.08
2023-02-14T13:05:44.068Z,73.78
2023-02-14T13:08:12.313Z,73.44
2023-02-14T13:10:55.096Z,73.66
2023-02-14T13:13:32.200Z,73.77
2023-02-14T13:16:49.636Z,73.74
2023-02-14T13:19:36.823Z,73.71
2023-02-14T13:22:07.164Z,73.83
2023-02-14T13:24:43.525Z,73.45
2023-02-14T13:27:22.879Z,73.75
2023-02-14T13:30:02.408Z,73.79
2023-02-14T13:32:42.545Z,73.69
2023-02-14T13:35:17.475Z,73.80
2023-02-14T13:37:54.351Z,73.74
2023-02-14T13:40:25.481Z,73.56
2023-02-14T13:42:57.330Z,73.56
2023-02-14T13:45:40.734Z,73.34
2023-02-14T13:48:13.339Z,73.57
2023-02-14T13:50:55.466Z,73.11
2023-02-14T13:53:49.446Z,73.31
2023-02-14T13:56:17.768Z,73.13
2023-02-14T13:58:53.696Z,73.04
2023-02-14T14:01:37.792Z,73.18
2023-02-14T14:04:28.715Z,73.05
2023-02-14T14:07:03.335Z,73.04
2023-02-14T14:09:47.775Z,72.95
2023-02-14T14:12:28.121Z,72.87
2023-02-14T14:15:05.743Z,72.97
2023-02-14T14:18:09.999Z,72.93
2023-02-14T14:20:46.195Z,72.84
2023-02-14T14:23:32.227Z,72.88
2023-02-14T14:26:01.603Z,72.85
2023-02-14T14:28:33.366Z,72.71
2023-02-14T14:31:02.009Z,72.66
2023-02-14T14:33:35.242Z,72.58
2023-02-14T14:36:11.345Z,72.82
2023-02-14T14:38:49.577Z,72.64
2023-02-14T14:41:18.668Z,72.54
2023-02-14T14:43:47.804Z,72.71
2023-02-14T14:46:17.573Z,72.83
2023-02-14T14:48:50.731Z,73.07
2023-02-14T14:51:34.181Z,72.72
2023-02-14T14:54:25.295Z,72.62
2023-02-14T14:57:00.716Z,72.82
2023-02-14T14:59:39.448Z,72.81
2023-02-14T15:02:23.941Z,73.03
2023-02-14T15:04:53.337Z,73.02
2023-02-14T15:07:28.480Z,73.09
2023-02-14T15:09:56.839Z,73.39
2023-02-14T15:12:44.738Z,73.42
2023-02-14T15:15:16.939Z,73.26
2023-02-14T15:17:46.926Z,73.59
2023-02-14T15:20:18.076Z,73.27
2023-02-14T15:22:49.657Z,73.67
2023-02-14T15:25:25.802Z,73.63
2023-02-14T15:27:54.515Z,73.90
2023-02-14T15:30:44.327Z,73.82
2023-02-14T15:33:13.206Z,73.75
2023-02-14T15:35:42.573Z,73.80
2023-02-14T15:38:13.252Z,73.86
2023-02-14T15:40:43.846Z,73.56
2023-02-14T15:43:18.208Z,73.76
2023-02-14T15:45:50.422Z,73.37
2023-02-14T15:48:33.642Z,73.54
2023-02-14T15:51:05.208Z,73.37
2023-02-14T15:53:53.847Z,73.84
2023-02-14T15:56:28.796Z,73.43
2023-02-14T15:59:01.008Z,73.83
2023-02-14T16:01:32.103Z,73.78
2023-02-14T16:04:04.188Z,73.56
2023-02-14T16:06:44.590Z,73.60
2023-02-14T16:09:28.038Z,73.58
2023-02-14T16:11:56.417Z,73.98
2023-02-14T16:14:32.491Z,73.79
2023-02-14T16:17:07.037Z,73.50
2023-02-14T16:19:48.318Z,73.81
2023-02-14T16:22:32.281Z,74.25
2023-02-14T16:25:01.374Z,73.87
2023-02-14T16:27:29.643Z,73.78
2023-02-14T16:29:59.019Z,73.81
2023-02-14T16:32:27.386Z,73.78
2023-02-14T16:34:55.873Z,73.89
2023-02-14T16:37:29.156Z,74.01
2023-02-14T16:40:00.377Z,73.79
2023-02-14T16:42:28.719Z,73.95
2023-02-14T16:44:58.059Z,73.89
2023-02-14T16:47:28.000Z,73.57
2023-02-14T16:49:56.856Z,73.76
2023-02-14T16:52:35.530Z,73.73
2023-02-14T16:55:04.949Z,73.79
2023-02-14T16:57:38.900Z,73.91
2023-02-14T17:00:09.774Z,74.14
2023-02-14T17:02:38.309Z,73.80
2023-02-14T17:05:07.067Z,73.86
2023-02-14T17:07:37.571Z,73.54
2023-02-14T17:10:10.591Z,73.97
2023-02-14T17:12:44.461Z,74.23
2023-02-14T17:15:17.125Z,73.95
2023-02-14T17:17:47.579Z,73.98
2023-02-14T17:20:37.704Z,73.95
2023-02-14T17:23:05.999Z,73.98
2023-02-14T17:25:35.295Z,73.80
2023-02-14T17:28:03.607Z,74.22
2023-02-14T17:30:31.883Z,74.13
2023-02-14T17:33:00.464Z,73.68
2023-02-14T17:35:51.175Z,74.01
2023-02-14T17:38:20.389Z,74.03
2023-02-14T17:40:48.614Z,73.91
2023-02-14T17:43:16.793Z,73.96
2023-02-14T17:45:45.126Z,73.78
2023-02-14T17:48:13.377Z,73.90
2023-02-14T17:50:41.934Z,74.00
2023-02-14T17:53:11.663Z,73.83
2023-02-14T17:55:39.838Z,73.74
2023-02-14T17:58:08.142Z,74.00
2023-02-14T18:00:36.439Z,73.94
2023-02-14T18:03:04.853Z,73.95
2023-02-14T18:05:36.712Z,73.87
2023-02-14T18:08:05.471Z,73.79
2023-02-14T18:10:33.712Z,73.98
2023-02-14T18:13:01.894Z,74.01
2023-02-14T18:15:31.538Z,74.10
2023-02-14T18:17:59.734Z,73.96
2023-02-14T18:20:27.954Z,73.99
2023-02-14T18:22:56.258Z,74.08
2023-02-14T18:25:24.477Z,74.03
2023-02-14T18:27:52.696Z,74.06
2023-02-14T18:30:21.113Z,74.16
2023-02-14T18:32:49.344Z,74.24
2023-02-14T18:35:17.632Z,74.15
2023-02-14T18:37:46.279Z,74.13
2023-02-14T18:40:20.367Z,74.12
2023-02-14T18:42:48.768Z,74.20
2023-02-14T18:45:17.689Z,74.17
2023-02-14T18:47:46.173Z,74.19
2023-02-14T18:50:14.568Z,74.16
2023-02-14T18:52:42.909Z,74.12
2023-02-14T18:55:11.299Z,74.16
2023-02-14T18:57:40.189Z,74.32
2023-02-14T19:00:12.357Z,74.40
2023-02-14T19:02:41.141Z,74.27
2023-02-14T19:05:10.549Z,74.31
2023-02-14T19:07:38.928Z,74.28
2023-02-14T19:10:08.700Z,74.23
2023-02-14T19:12:40.813Z,74.19
2023-02-14T19:15:09.906Z,74.35
2023-02-14T19:17:38.789Z,74.23
2023-02-14T19:20:08.830Z,74.29
2023-02-14T19:22:40.161Z,74.27
2023-02-14T19:25:09.338Z,74.35
2023-02-14T19:27:38.034Z,74.37
2023-02-14T19:30:07.662Z,74.24
2023-02-14T19:32:35.942Z,74.19
2023-02-14T19:35:04.296Z,74.17
2023-02-14T19:37:35.426Z,74.16
2023-02-14T19:40:03.815Z,74.26
2023-02-14T19:42:32.302Z,74.39
2023-02-14T19:45:00.672Z,74.37
2023-02-14T19:47:43.526Z,74.30
2023-02-14T19:50:14.957Z,74.32
2023-02-14T19:52:44.165Z,74.28
2023-02-14T19:55:23.305Z,74.22
2023-02-14T19:57:51.662Z,74.25
2023-02-14T20:00:21.270Z,74.24
2023-02-14T20:02:49.680Z,74.33
2023-02-14T20:05:19.777Z,74.29
2023-02-14T20:07:49.543Z,74.34
2023-02-14T20:10:18.066Z,74.25
2023-02-14T20:12:46.709Z,74.35
2023-02-14T20:15:15.558Z,74.39
2023-02-14T20:17:43.929Z,74.34
2023-02-14T20:20:14.363Z,74.35
2023-02-14T20:22:45.602Z,74.29
2023-02-14T20:25:14.017Z,74.48
2023-02-14T20:27:42.553Z,74.44
2023-02-14T20:30:11.703Z,74.43
2023-02-14T20:32:39.970Z,74.41
2023-02-14T20:35:08.508Z,74.51
2023-02-14T20:37:36.954Z,74.44
2023-02-14T20:40:07.321Z,74.48
2023-02-14T20:42:35.852Z,74.56
2023-02-14T20:45:04.313Z,74.39
2023-02-14T20:47:32.617Z,74.72
2023-02-14T20:50:01.069Z,74.58
2023-02-14T20:52:30.995Z,74.67
2023-02-14T20:54:59.300Z,74.51
2023-02-14T20:57:29.426Z,74.61
2023-02-14T20:59:57.942Z,74.78
2023-02-14T21:02:26.618Z,74.71
2023-02-14T21:04:55.851Z,74.97
2023-02-14T21:07:24.671Z,74.88
2023-02-14T21:09:53.188Z,75.01
2023-02-14T21:12:21.666Z,75.22
2023-02-14T21:14:50.165Z,75.03
2023-02-14T21:17:18.915Z,75.21
2023-02-14T21:19:57.713Z,75.16
2023-02-14T21:22:34.516Z,75.14
2023-02-14T21:25:08.987Z,75.19
2023-02-14T21:27:43.155Z,74.99
2023-02-14T21:30:12.506Z,75.15
2023-02-14T21:32:40.933Z,75.15
2023-02-14T21:35:10.514Z,75.08
2023-02-14T21:37:41.403Z,75.07
2023-02-14T21:40:11.679Z,75.18
2023-02-14T21:42:40.270Z,75.31
2023-02-14T21:45:31.252Z,75.17
2023-02-14T21:48:18.177Z,75.26
2023-02-14T21:50:46.444Z,75.17
2023-02-14T21:53:15.463Z,75.30
2023-02-14T21:55:46.280Z,75.28
2023-02-14T21:58:14.551Z,75.26
2023-02-14T22:00:46.169Z,75.15
2023-02-14T22:03:14.550Z,75.20
2023-02-14T22:05:42.923Z,75.23
2023-02-14T22:08:11.195Z,75.03
2023-02-14T22:10:40.612Z,75.25
2023-02-14T22:13:09.536Z,75.24
2023-02-14T22:15:43.110Z,74.81
2023-02-14T22:18:11.736Z,75.01
2023-02-14T22:20:40.596Z,75.02
2023-02-14T22:23:09.009Z,75.03
2023-02-14T22:25:40.611Z,75.05
2023-02-14T22:28:09.171Z,74.91
2023-02-14T22:30:37.464Z,74.86
2023-02-14T22:33:05.754Z,75.04
2023-02-14T22:35:34.122Z,74.99
2023-02-14T22:38:02.341Z,75.13
2023-02-14T22:40:30.576Z,74.87
2023-02-14T22:43:00.873Z,74.88
2023-02-14T22:45:29.116Z,74.96
2023-02-14T22:47:57.438Z,74.96
2023-02-14T22:50:25.825Z,74.68
2023-02-14T22:52:54.283Z,74.84
2023-02-14T22:55:22.516Z,74.79
2023-02-14T22:57:51.186Z,74.86
2023-02-14T23:00:20.179Z,74.84
2023-02-14T23:02:48.429Z,74.79
2023-02-14T23:05:17.304Z,74.89
2023-02-14T23:07:45.601Z,75.15
2023-02-14T23:10:14.096Z,74.64
2023-02-14T23:13:00.873Z,74.88
2023-02-14T23:15:47.819Z,74.90
2023-02-14T23:18:42.713Z,74.96
2023-02-14T23:21:32.950Z,74.69
2023-02-14T23:24:01.303Z,74.69
2023-02-14T23:26:29.631Z,74.72
2023-02-14T23:28:58.182Z,75.01
2023-02-14T23:31:26.741Z,75.06
2023-02-14T23:33:55.284Z,74.85
2023-02-14T23:36:23.614Z,74.90
2023-02-14T23:38:54.114Z,74.74
2023-02-14T23:41:40.729Z,74.96
2023-02-14T23:44:08.989Z,74.96
2023-02-14T23:46:37.318Z,74.91
2023-02-14T23:49:06.768Z,74.97
2023-02-14T23:51:35.598Z,74.60
2023-02-14T23:54:04.511Z,75.01
2023-02-14T23:56:33.488Z,74.88
2023-02-14T23:59:01.971Z,74.63
